createdAt,value
2019-06-08T00:03:45.399Z,9.60
2019-06-08T00:08:50.155Z,9.73
2019-06-08T00:13:53.993Z,8.66
2019-06-08T00:18:58.403Z,9.07
2019-06-08T00:24:01.796Z,9.47
2019-06-08T00:29:05.134Z,9.90
2019-06-08T00:34:08.758Z,10.03
2019-06-08T00:39:13.293Z,8.93
2019-06-08T00:44:17.197Z,8.13
2019-06-08T00:49:21.130Z,7.50
2019-06-08T00:54:25.652Z,8.43
2019-06-08T00:59:30.406Z,7.93
2019-06-08T01:04:34.154Z,7.63
2019-06-08T01:09:37.552Z,7.47
2019-06-08T01:14:41.084Z,9.20
2019-06-08T01:19:44.904Z,8.60
2019-06-08T01:24:51.938Z,8.23
2019-06-08T01:29:56.049Z,8.03
2019-06-08T01:34:59.862Z,5.43
2019-06-08T01:40:04.296Z,4.27
2019-06-08T01:45:08.711Z,3.70
2019-06-08T01:50:13.393Z,3.40
2019-06-08T01:55:17.795Z,2.60
2019-06-08T02:00:30.278Z,2.60
2019-06-08T02:05:28.103Z,2.90
2019-06-08T02:10:32.898Z,2.17
2019-06-08T02:15:36.590Z,2.10
2019-06-08T02:20:40.422Z,2.03
2019-06-08T02:25:44.352Z,2.00
2019-06-08T02:30:48.256Z,1.70
2019-06-08T02:35:52.304Z,1.70
2019-06-08T02:40:56.385Z,1.50
2019-06-08T02:46:01.307Z,1.77
2019-06-08T02:51:05.003Z,2.03
2019-06-08T02:56:08.930Z,1.77
2019-06-08T03:01:12.641Z,1.60
2019-06-08T03:06:16.394Z,1.90
2019-06-08T03:11:20.724Z,1.43
2019-06-08T03:16:24.534Z,1.70
2019-06-08T03:21:28.893Z,1.43
2019-06-08T03:26:34.149Z,1.50
2019-06-08T03:31:46.052Z,1.90
2019-06-08T03:36:54.866Z,1.40
2019-06-08T03:41:49.487Z,1.83
2019-06-08T03:46:53.435Z,1.67
2019-06-08T03:51:57.014Z,1.43
2019-06-08T03:57:00.870Z,1.60
2019-06-08T04:02:04.769Z,1.43
2019-06-08T04:07:08.704Z,1.50
2019-06-08T04:12:12.934Z,1.50
2019-06-08T04:17:16.989Z,1.37
2019-06-08T04:22:20.893Z,1.20
2019-06-08T04:27:24.933Z,1.30
2019-06-08T04:32:29.055Z,1.07
2019-06-08T04:37:33.201Z,1.00
2019-06-08T04:42:37.218Z,1.20
2019-06-08T04:47:43.031Z,1.20
2019-06-08T04:52:47.474Z,1.40
2019-06-08T04:57:51.340Z,1.30
2019-06-08T05:02:55.276Z,1.40
2019-06-08T05:07:59.253Z,1.17
2019-06-08T05:13:03.359Z,1.30
2019-06-08T05:18:07.612Z,1.37
2019-06-08T05:23:11.482Z,1.40
2019-06-08T05:28:15.408Z,1.10
2019-06-08T05:33:20.475Z,1.13
2019-06-08T05:38:24.191Z,1.00
2019-06-08T05:43:28.734Z,1.10
2019-06-08T05:48:32.665Z,1.13
2019-06-08T05:53:37.809Z,1.10
2019-06-08T05:58:41.879Z,0.60
2019-06-08T06:03:46.534Z,0.80
2019-06-08T06:08:51.310Z,1.03
2019-06-08T06:13:55.369Z,0.80
2019-06-08T06:18:59.377Z,0.93
2019-06-08T06:24:03.238Z,0.80
2019-06-08T06:29:06.940Z,1.47
2019-06-08T06:34:10.947Z,1.00
2019-06-08T06:39:14.615Z,1.40
2019-06-08T06:44:18.618Z,1.50
2019-06-08T06:49:22.231Z,1.30
2019-06-08T06:54:26.143Z,1.20
2019-06-08T06:59:29.975Z,1.63
2019-06-08T07:04:33.894Z,1.70
2019-06-08T07:09:39.193Z,1.63
2019-06-08T07:14:44.891Z,1.80
2019-06-08T07:19:48.652Z,1.80
2019-06-08T07:24:52.823Z,1.90
2019-06-08T07:29:56.501Z,2.30
2019-06-08T07:35:00.079Z,2.17
2019-06-08T07:40:03.735Z,2.50
2019-06-08T07:45:07.767Z,2.37
2019-06-08T07:50:11.616Z,2.03
2019-06-08T07:55:15.532Z,2.40
2019-06-08T08:00:19.509Z,2.30
2019-06-08T08:05:23.590Z,1.90
2019-06-08T08:10:28.652Z,2.23
2019-06-08T08:15:33.914Z,2.73
2019-06-08T08:20:37.932Z,2.90
2019-06-08T08:25:41.741Z,2.10
2019-06-08T08:30:48.078Z,2.80
2019-06-08T08:35:52.155Z,2.00
2019-06-08T08:40:59.425Z,2.10
2019-06-08T08:46:01.978Z,1.83
2019-06-08T08:51:08.367Z,2.27
2019-06-08T08:56:11.240Z,1.90
2019-06-08T09:01:20.291Z,2.60
2019-06-08T09:06:20.708Z,2.20
2019-06-08T09:16:44.054Z,2.10
2019-06-08T09:21:48.188Z,1.90
2019-06-08T09:26:52.925Z,1.77
2019-06-08T09:31:59.069Z,2.33
2019-06-08T09:37:03.449Z,2.07
2019-06-08T09:42:09.087Z,2.30
2019-06-08T09:47:13.283Z,1.80
2019-06-08T09:52:18.380Z,2.30
2019-06-08T09:57:22.874Z,1.93
2019-06-08T10:02:28.372Z,2.57
2019-06-08T10:07:34.335Z,2.60
2019-06-08T10:12:41.024Z,2.30
2019-06-08T10:17:43.965Z,2.67
2019-06-08T10:22:49.916Z,2.33
2019-06-08T10:27:52.645Z,2.57
2019-06-08T10:33:00.496Z,2.33
2019-06-08T10:38:05.193Z,2.57
2019-06-08T10:43:09.500Z,2.50
2019-06-08T10:48:12.551Z,2.60
2019-06-08T10:53:16.700Z,2.47
2019-06-08T10:58:20.628Z,3.67
2019-06-08T11:03:25.340Z,2.00
2019-06-08T11:08:29.352Z,2.20
2019-06-08T11:13:33.176Z,2.30
2019-06-08T11:18:37.318Z,1.97
2019-06-08T11:23:41.627Z,2.93
2019-06-08T11:28:48.253Z,2.77
2019-06-08T11:33:50.863Z,2.47
2019-06-08T11:38:54.781Z,2.40
2019-06-08T11:44:00.122Z,3.23
2019-06-08T11:49:05.086Z,3.10
2019-06-08T11:54:25.244Z,3.30
2019-06-08T11:59:14.526Z,3.40
2019-06-08T12:04:20.054Z,3.38
2019-06-08T12:09:24.060Z,2.77
2019-06-08T12:14:27.417Z,2.27
2019-06-08T12:19:31.589Z,2.90
2019-06-08T12:24:42.115Z,2.60
2019-06-08T12:29:41.905Z,3.07
2019-06-08T12:34:45.348Z,7.47
2019-06-08T12:39:48.944Z,8.93
2019-06-08T12:44:52.682Z,8.67
2019-06-08T12:49:58.458Z,8.23
2019-06-08T12:55:06.894Z,8.50
2019-06-08T13:00:09.384Z,8.40
2019-06-08T13:05:15.106Z,9.80
2019-06-08T13:10:23.485Z,9.03
2019-06-08T13:15:22.475Z,9.63
2019-06-08T13:20:28.356Z,11.00
2019-06-08T13:25:40.082Z,10.30
2019-06-08T13:30:39.081Z,10.33
2019-06-08T13:35:43.322Z,10.73
2019-06-08T13:40:48.389Z,11.23
2019-06-08T13:45:52.473Z,10.03
2019-06-08T13:50:59.014Z,8.60
2019-06-08T13:56:02.029Z,10.57
2019-06-08T14:01:08.858Z,8.90
2019-06-08T14:06:11.287Z,10.50
2019-06-08T14:11:16.350Z,10.00
2019-06-08T14:16:22.260Z,8.33
2019-06-08T14:21:31.983Z,8.13
2019-06-08T14:26:31.271Z,8.97
2019-06-08T14:31:35.093Z,8.80
2019-06-08T14:36:40.791Z,8.90
2019-06-08T14:41:43.964Z,8.40
2019-06-08T14:46:48.427Z,9.80
2019-06-08T14:51:53.254Z,8.40
2019-06-08T14:56:57.753Z,7.43
2019-06-08T15:02:01.750Z,7.90
2019-06-08T15:07:09.271Z,7.73
2019-06-08T15:12:11.311Z,8.63
2019-06-08T15:17:15.230Z,8.00
2019-06-08T15:22:20.776Z,6.67
2019-06-08T15:27:25.908Z,7.60
2019-06-08T15:32:34.988Z,8.80
2019-06-08T15:37:37.940Z,6.70
2019-06-08T15:42:40.401Z,7.53
2019-06-08T15:47:44.533Z,6.47
2019-06-08T15:52:49.078Z,7.40
2019-06-08T15:57:52.994Z,7.17
2019-06-08T16:02:56.826Z,6.90
2019-06-08T16:08:01.090Z,7.40
2019-06-08T16:13:05.486Z,6.57
2019-06-08T16:18:09.827Z,6.43
2019-06-08T16:23:13.851Z,6.73
2019-06-08T16:28:17.670Z,7.87
2019-06-08T16:33:21.916Z,7.17
2019-06-08T16:38:25.835Z,6.40
2019-06-08T16:43:30.956Z,6.47
2019-06-08T16:48:36.240Z,6.40
2019-06-08T16:53:40.382Z,6.70
2019-06-08T16:58:44.542Z,6.30
2019-06-08T17:03:48.507Z,6.27
2019-06-08T17:08:52.887Z,7.03
2019-06-08T17:13:56.797Z,5.77
2019-06-08T17:19:00.736Z,5.50
2019-06-08T17:24:04.891Z,6.27
2019-06-08T17:29:08.911Z,5.50
2019-06-08T17:34:12.627Z,5.47
2019-06-08T17:39:16.445Z,5.73
2019-06-08T17:44:20.478Z,5.87
2019-06-08T17:49:24.818Z,5.30
2019-06-08T17:54:29.029Z,7.20
2019-06-08T17:59:33.199Z,6.97
2019-06-08T18:04:38.367Z,5.20
2019-06-08T18:09:43.478Z,5.93
2019-06-08T18:14:48.063Z,5.20
2019-06-08T18:19:52.032Z,5.70
2019-06-08T18:24:58.099Z,5.40
2019-06-08T18:30:08.002Z,5.03
2019-06-08T18:35:08.158Z,5.50
2019-06-08T18:40:12.174Z,5.90
2019-06-08T18:45:18.021Z,5.77
2019-06-08T18:50:21.431Z,6.40
2019-06-08T18:55:27.717Z,5.10
2019-06-08T19:00:30.913Z,5.50
2019-06-08T19:05:34.759Z,5.43
2019-06-08T19:10:39.484Z,6.17
2019-06-08T19:15:47.121Z,5.37
2019-06-08T19:20:50.787Z,5.17
2019-06-08T19:25:54.442Z,6.70
2019-06-08T19:30:58.308Z,5.90
2019-06-08T19:36:02.207Z,5.17
2019-06-08T19:41:08.013Z,5.83
2019-06-08T19:46:11.413Z,6.03
2019-06-08T19:51:17.072Z,4.63
2019-06-08T19:56:21.542Z,5.20
2019-06-08T20:01:27.496Z,5.87
2019-06-08T20:06:30.369Z,5.27
2019-06-08T20:11:33.877Z,4.87
2019-06-08T20:16:38.095Z,6.00
2019-06-08T20:21:42.798Z,6.53
2019-06-08T20:26:49.020Z,5.90
2019-06-08T20:31:51.834Z,5.90
2019-06-08T20:36:57.416Z,6.27
2019-06-08T20:42:01.337Z,5.87
2019-06-08T20:47:05.168Z,6.20
2019-06-08T20:52:09.088Z,7.10
2019-06-08T20:57:13.132Z,6.90
2019-06-08T21:02:17.845Z,8.30
2019-06-08T21:07:22.631Z,8.40
2019-06-08T21:12:28.354Z,9.47
2019-06-08T21:17:32.014Z,9.27
2019-06-08T21:22:35.819Z,8.10
2019-06-08T21:27:39.744Z,7.73
2019-06-08T21:32:43.555Z,7.07
2019-06-08T21:37:49.803Z,7.43
2019-06-08T21:42:53.884Z,8.17
2019-06-08T21:48:00.213Z,6.10
2019-06-08T21:53:02.959Z,6.90
2019-06-08T21:58:08.012Z,8.23
2019-06-08T22:03:11.971Z,7.43
2019-06-08T22:08:17.344Z,6.37
2019-06-08T22:13:21.967Z,6.50
2019-06-08T22:18:27.335Z,6.27
2019-06-08T22:23:31.417Z,6.47
2019-06-08T22:28:37.663Z,8.00
2019-06-08T22:33:42.141Z,8.20
2019-06-08T22:38:47.719Z,8.80
2019-06-08T22:43:53.444Z,8.97
2019-06-08T22:49:00.381Z,9.83
2019-06-08T22:54:02.758Z,9.40
2019-06-08T22:59:09.245Z,7.87
2019-06-08T23:04:12.974Z,40.93
2019-06-08T23:09:17.980Z,29.87
2019-06-08T23:14:21.868Z,25.13
2019-06-08T23:19:26.614Z,20.90
2019-06-08T23:24:30.856Z,20.33
2019-06-08T23:29:35.055Z,18.33
2019-06-08T23:34:38.976Z,17.40
2019-06-08T23:39:42.633Z,17.37
2019-06-08T23:44:47.170Z,16.80
2019-06-08T23:49:51.479Z,16.33
2019-06-08T23:54:55.217Z,15.20
